createdAt,value
2023-05-04T00:01:15.549Z,25.86
2023-05-04T00:03:17.357Z,25.91
2023-05-04T00:05:18.987Z,25.66
2023-05-04T00:07:20.803Z,25.45
2023-05-04T00:09:22.448Z,25.90
2023-05-04T00:11:24.100Z,25.76
2023-05-04T00:13:25.664Z,25.40
2023-05-04T00:15:28.066Z,25.65
2023-05-04T00:17:29.642Z,25.85
2023-05-04T00:19:31.149Z,25.79
2023-05-04T00:21:32.835Z,25.69
2023-05-04T00:23:34.383Z,25.52
2023-05-04T00:25:36.323Z,25.50
2023-05-04T00:27:38.169Z,25.55
2023-05-04T00:29:40.106Z,25.66
2023-05-04T00:31:41.915Z,25.64
2023-05-04T00:33:43.469Z,25.65
2023-05-04T00:35:45.161Z,25.75
2023-05-04T00:37:46.864Z,25.51
2023-05-04T00:39:48.479Z,25.68
2023-05-04T00:41:49.983Z,25.40
2023-05-04T00:43:51.871Z,25.65
2023-05-04T00:45:53.429Z,25.58
2023-05-04T00:47:55.922Z,25.44
2023-05-04T00:49:57.633Z,25.55
2023-05-04T00:52:02.191Z,25.45
2023-05-04T00:54:04.162Z,25.67
2023-05-04T00:56:07.535Z,25.78
2023-05-04T00:58:09.276Z,25.46
2023-05-04T01:00:13.244Z,25.78
2023-05-04T01:02:14.743Z,25.65
2023-05-04T01:04:16.751Z,25.50
2023-05-04T01:06:25.926Z,25.22
2023-05-04T01:08:32.218Z,25.25
2023-05-04T01:11:12.167Z,25.45
2023-05-04T01:13:16.524Z,25.39
2023-05-04T01:15:20.331Z,25.50
2023-05-04T01:17:21.986Z,25.64
2023-05-04T01:19:23.528Z,25.91
2023-05-04T01:21:28.902Z,25.60
2023-05-04T01:23:30.622Z,25.50
2023-05-04T01:25:49.504Z,25.38
2023-05-04T01:28:02.694Z,25.75
2023-05-04T01:30:20.881Z,25.34
2023-05-04T01:32:23.921Z,25.75
2023-05-04T01:34:25.629Z,25.83
2023-05-04T01:36:27.460Z,25.83
2023-05-04T01:38:29.019Z,25.49
2023-05-04T01:40:30.640Z,25.83
2023-05-04T01:42:32.240Z,25.36
2023-05-04T01:44:33.850Z,25.57
2023-05-04T01:46:35.482Z,25.69
2023-05-04T01:48:37.127Z,25.74
2023-05-04T01:50:38.714Z,25.38
2023-05-04T01:52:40.244Z,25.54
2023-05-04T01:54:41.778Z,25.74
2023-05-04T01:56:43.432Z,25.81
2023-05-04T01:58:45.059Z,25.41
2023-05-04T02:00:46.994Z,25.77
2023-05-04T02:02:48.680Z,25.55
2023-05-04T02:04:50.381Z,25.53
2023-05-04T02:06:51.941Z,25.35
2023-05-04T02:08:53.600Z,25.69
2023-05-04T02:10:55.137Z,25.81
2023-05-04T02:12:56.816Z,25.43
2023-05-04T02:14:58.473Z,25.73
2023-05-04T02:17:00.186Z,25.30
2023-05-04T02:19:01.858Z,25.67
2023-05-04T02:21:03.716Z,25.82
2023-05-04T02:23:05.284Z,25.77
2023-05-04T02:25:07.569Z,25.63
2023-05-04T02:27:09.150Z,25.58
2023-05-04T02:29:10.989Z,25.51
2023-05-04T02:31:12.552Z,25.74
2023-05-04T02:33:14.274Z,25.46
2023-05-04T02:35:16.027Z,25.41
2023-05-04T02:37:17.854Z,25.81
2023-05-04T02:39:19.375Z,25.76
2023-05-04T02:41:21.276Z,25.49
2023-05-04T02:43:22.930Z,25.81
2023-05-04T02:45:27.365Z,25.77
2023-05-04T02:47:29.180Z,25.36
2023-05-04T02:49:31.061Z,25.79
2023-05-04T02:51:32.752Z,25.49
2023-05-04T02:53:34.354Z,25.33
2023-05-04T02:55:36.273Z,25.41
2023-05-04T02:57:37.923Z,25.65
2023-05-04T02:59:39.560Z,25.66
2023-05-04T03:01:41.221Z,25.55
2023-05-04T03:03:42.797Z,25.35
2023-05-04T03:05:44.381Z,25.46
2023-05-04T03:07:46.028Z,25.88
2023-05-04T03:09:48.052Z,25.62
2023-05-04T03:11:49.857Z,25.71
2023-05-04T03:13:51.455Z,25.49
2023-05-04T03:15:53.058Z,25.62
2023-05-04T03:17:54.772Z,25.46
2023-05-04T03:19:56.411Z,25.61
2023-05-04T03:22:00.632Z,25.69
2023-05-04T03:24:02.226Z,25.56
2023-05-04T03:26:03.965Z,25.61
2023-05-04T03:28:05.793Z,25.58
2023-05-04T03:30:08.351Z,25.85
2023-05-04T03:32:10.051Z,25.79
2023-05-04T03:34:12.820Z,25.66
2023-05-04T03:36:14.466Z,25.84
2023-05-04T03:38:16.665Z,25.79
2023-05-04T03:40:22.852Z,25.55
2023-05-04T03:42:24.560Z,25.65
2023-05-04T03:44:26.217Z,25.78
2023-05-04T03:46:28.127Z,25.78
2023-05-04T03:48:30.010Z,25.39
2023-05-04T03:50:31.980Z,25.71
2023-05-04T03:52:33.513Z,25.42
2023-05-04T03:54:35.222Z,25.44
2023-05-04T03:56:36.826Z,25.82
2023-05-04T03:58:38.453Z,25.65
2023-05-04T04:00:40.068Z,25.93
2023-05-04T04:02:41.930Z,25.26
2023-05-04T04:04:43.702Z,25.60
2023-05-04T04:06:45.893Z,25.50
2023-05-04T04:08:47.520Z,25.55
2023-05-04T04:10:49.190Z,25.31
2023-05-04T04:12:50.942Z,25.56
2023-05-04T04:14:52.646Z,25.87
2023-05-04T04:16:54.248Z,25.53
2023-05-04T04:18:56.006Z,25.51
2023-05-04T04:20:57.798Z,25.25
2023-05-04T04:22:59.363Z,25.70
2023-05-04T04:25:01.103Z,25.32
2023-05-04T04:27:02.816Z,25.77
2023-05-04T04:29:04.376Z,25.87
2023-05-04T04:31:06.128Z,25.49
2023-05-04T04:33:08.697Z,25.45
2023-05-04T04:35:10.395Z,25.99
2023-05-04T04:37:11.988Z,25.72
2023-05-04T04:39:13.539Z,25.63
2023-05-04T04:41:15.577Z,25.66
2023-05-04T04:43:18.971Z,25.42
2023-05-04T04:45:20.656Z,25.50
2023-05-04T04:47:22.669Z,25.68
2023-05-04T04:49:24.358Z,25.21
2023-05-04T04:51:26.554Z,25.67
2023-05-04T04:53:28.409Z,26.04
2023-05-04T04:55:30.203Z,25.84
2023-05-04T04:57:32.024Z,25.91
2023-05-04T04:59:33.751Z,25.78
2023-05-04T05:01:35.420Z,25.59
2023-05-04T05:03:37.237Z,25.53
2023-05-04T05:05:38.938Z,25.48
2023-05-04T05:07:40.516Z,25.79
2023-05-04T05:09:42.874Z,25.71
2023-05-04T05:11:44.409Z,25.86
2023-05-04T05:13:46.092Z,25.55
2023-05-04T05:15:47.816Z,25.89
2023-05-04T05:17:51.950Z,25.93
2023-05-04T05:19:53.820Z,25.73
2023-05-04T05:21:56.928Z,25.62
2023-05-04T05:23:58.617Z,25.49
2023-05-04T05:26:02.060Z,25.69
2023-05-04T05:28:05.515Z,25.62
2023-05-04T05:30:07.975Z,25.66
2023-05-04T05:32:09.726Z,25.56
2023-05-04T05:34:11.236Z,25.35
2023-05-04T05:36:14.422Z,25.48
2023-05-04T05:38:16.225Z,25.45
2023-05-04T05:40:19.241Z,25.68
2023-05-04T05:42:21.315Z,25.52
2023-05-04T05:44:22.938Z,25.75
2023-05-04T05:46:25.132Z,25.51
2023-05-04T05:48:26.706Z,25.51
2023-05-04T05:50:28.331Z,26.07
2023-05-04T05:52:30.094Z,25.69
2023-05-04T05:54:32.131Z,25.69
2023-05-04T05:56:33.706Z,25.39
2023-05-04T05:58:35.299Z,25.53
2023-05-04T06:00:36.905Z,25.77
2023-05-04T06:02:38.813Z,25.87
2023-05-04T06:04:41.953Z,25.30
2023-05-04T06:06:45.739Z,25.65
2023-05-04T06:08:47.714Z,25.74
2023-05-04T06:10:50.403Z,25.74
2023-05-04T06:12:52.207Z,25.48
2023-05-04T06:14:54.078Z,25.66
2023-05-04T06:16:55.727Z,25.79
2023-05-04T06:18:57.458Z,25.65
2023-05-04T06:21:00.442Z,26.08
2023-05-04T06:23:02.060Z,25.56
2023-05-04T06:25:06.060Z,25.75
2023-05-04T06:27:09.817Z,25.56
2023-05-04T06:29:11.462Z,25.80
2023-05-04T06:31:13.597Z,25.75
2023-05-04T06:33:15.230Z,25.41
2023-05-04T06:35:17.057Z,25.41
2023-05-04T06:37:18.655Z,25.41
2023-05-04T06:39:20.210Z,25.58
2023-05-04T06:41:21.977Z,25.51
2023-05-04T06:43:23.811Z,25.44
2023-05-04T06:45:25.608Z,25.52
2023-05-04T06:47:27.229Z,25.41
2023-05-04T06:49:32.192Z,25.47
2023-05-04T06:51:37.440Z,25.84
2023-05-04T06:53:39.165Z,25.80
2023-05-04T06:55:40.905Z,25.60
2023-05-04T06:57:42.463Z,25.59
2023-05-04T06:59:43.984Z,25.47
2023-05-04T07:01:47.246Z,25.94
2023-05-04T07:03:48.940Z,25.81
2023-05-04T07:05:51.059Z,25.67
2023-05-04T07:07:52.758Z,25.62
2023-05-04T07:09:54.566Z,25.71
2023-05-04T07:11:56.238Z,25.88
2023-05-04T07:13:58.882Z,25.74
2023-05-04T07:16:00.647Z,25.52
2023-05-04T07:18:02.461Z,25.87
2023-05-04T07:20:05.681Z,25.71
2023-05-04T07:22:07.694Z,25.87
2023-05-04T07:24:09.654Z,25.53
2023-05-04T07:26:11.472Z,25.78
2023-05-04T07:28:13.076Z,25.95
2023-05-04T07:30:14.919Z,25.74
2023-05-04T07:32:17.682Z,26.02
2023-05-04T07:34:20.162Z,25.88
2023-05-04T07:36:24.904Z,25.75
2023-05-04T07:38:29.325Z,25.91
2023-05-04T07:40:30.964Z,25.76
2023-05-04T07:42:32.717Z,25.65
2023-05-04T07:44:34.401Z,25.82
2023-05-04T07:46:36.077Z,25.82
2023-05-04T07:48:37.757Z,25.65
2023-05-04T07:50:39.558Z,25.96
2023-05-04T07:52:41.101Z,25.64
2023-05-04T07:54:42.698Z,25.68
2023-05-04T07:56:44.243Z,26.05
2023-05-04T07:58:47.484Z,26.03
2023-05-04T08:00:50.252Z,25.55
2023-05-04T08:02:52.088Z,25.94
2023-05-04T08:04:53.666Z,25.76
2023-05-04T08:06:55.407Z,25.78
2023-05-04T08:08:57.130Z,26.05
2023-05-04T08:11:08.448Z,25.64
2023-05-04T08:13:18.062Z,25.85
2023-05-04T08:15:19.753Z,25.93
2023-05-04T08:17:21.630Z,25.99
2023-05-04T08:19:23.260Z,26.03
2023-05-04T08:21:25.128Z,27.05
2023-05-04T08:23:27.499Z,26.66
2023-05-04T08:25:29.509Z,27.01
2023-05-04T08:27:31.079Z,26.77
2023-05-04T08:29:32.661Z,27.22
2023-05-04T08:31:35.039Z,27.33
2023-05-04T08:33:36.696Z,27.22
2023-05-04T08:35:38.594Z,27.46
2023-05-04T08:37:40.351Z,27.03
2023-05-04T08:39:42.135Z,27.03
2023-05-04T08:41:44.336Z,27.07
2023-05-04T08:43:46.739Z,27.39
2023-05-04T08:45:49.674Z,26.78
2023-05-04T08:47:51.615Z,26.90
2023-05-04T08:49:56.818Z,27.43
2023-05-04T08:51:59.287Z,27.31
2023-05-04T08:54:01.896Z,27.66
2023-05-04T08:56:07.666Z,27.31
2023-05-04T08:58:14.077Z,27.73
2023-05-04T09:00:16.910Z,27.36
2023-05-04T09:02:21.349Z,27.53
2023-05-04T09:04:23.432Z,27.38
2023-05-04T09:06:25.622Z,27.33
2023-05-04T09:08:27.325Z,27.57
2023-05-04T09:10:29.761Z,27.99
2023-05-04T09:12:31.622Z,27.74
2023-05-04T09:14:34.687Z,27.44
2023-05-04T09:16:37.747Z,28.08
2023-05-04T09:18:41.308Z,27.92
2023-05-04T09:20:47.180Z,28.13
2023-05-04T09:23:08.762Z,28.28
2023-05-04T09:25:12.854Z,28.37
2023-05-04T09:27:18.576Z,28.05
2023-05-04T09:29:22.087Z,28.01
2023-05-04T09:31:24.310Z,28.04
2023-05-04T09:33:29.688Z,27.90
2023-05-04T09:35:33.965Z,28.07
2023-05-04T09:37:46.755Z,28.49
2023-05-04T09:39:53.857Z,28.66
2023-05-04T09:41:57.808Z,28.59
2023-05-04T09:43:59.506Z,28.41
2023-05-04T09:46:01.786Z,28.70
2023-05-04T09:48:15.180Z,28.56
2023-05-04T09:50:26.889Z,28.87
2023-05-04T09:52:31.078Z,28.74
2023-05-04T09:54:39.017Z,28.35
2023-05-04T09:56:49.294Z,28.30
2023-05-04T09:58:51.698Z,28.98
2023-05-04T10:00:53.800Z,28.99
2023-05-04T10:02:58.693Z,29.00
2023-05-04T10:05:01.447Z,28.81
2023-05-04T10:07:04.528Z,28.81
2023-05-04T10:09:06.618Z,28.61
2023-05-04T10:11:10.484Z,28.95
2023-05-04T10:13:12.574Z,28.64
2023-05-04T10:15:15.990Z,28.41
2023-05-04T10:17:35.172Z,28.35
2023-05-04T10:19:54.911Z,28.74
2023-05-04T10:22:05.870Z,28.84
2023-05-04T10:24:38.553Z,28.79
2023-05-04T10:26:55.164Z,28.61
2023-05-04T10:29:23.257Z,28.81
2023-05-04T10:31:25.730Z,28.53
2023-05-04T10:33:41.270Z,28.79
2023-05-04T10:35:53.232Z,28.71
2023-05-04T10:37:56.023Z,28.82
2023-05-04T10:39:58.645Z,28.80
2023-05-04T10:42:05.848Z,28.91
2023-05-04T10:44:09.929Z,28.20
2023-05-04T10:46:22.264Z,28.86
2023-05-04T10:48:34.871Z,28.78
2023-05-04T10:50:47.274Z,28.79
2023-05-04T10:52:50.874Z,28.44
2023-05-04T10:55:00.801Z,28.25
2023-05-04T10:57:07.475Z,28.15
2023-05-04T10:59:10.371Z,28.40
2023-05-04T11:01:13.278Z,28.47
2023-05-04T11:03:15.588Z,28.66
2023-05-04T11:05:20.078Z,28.34
2023-05-04T11:07:33.790Z,28.12
2023-05-04T11:09:42.445Z,28.50
2023-05-04T11:11:44.111Z,28.32
2023-05-04T11:13:48.714Z,28.23
2023-05-04T11:15:51.995Z,28.55
2023-05-04T11:17:53.589Z,28.28
2023-05-04T11:19:55.404Z,28.55
2023-05-04T11:21:56.987Z,28.49
2023-05-04T11:24:00.140Z,28.44
2023-05-04T11:26:07.433Z,28.87
2023-05-04T11:28:10.289Z,28.43
2023-05-04T11:30:16.127Z,28.54
2023-05-04T11:32:17.968Z,28.33
2023-05-04T11:34:20.922Z,28.09
2023-05-04T11:36:23.251Z,28.26
2023-05-04T11:38:25.254Z,28.49
2023-05-04T11:40:27.361Z,28.41
2023-05-04T11:42:29.018Z,28.49
2023-05-04T11:44:30.612Z,28.51
2023-05-04T11:46:34.378Z,28.57
2023-05-04T11:48:39.880Z,28.65
2023-05-04T11:50:41.758Z,28.25
2023-05-04T11:52:44.547Z,28.70
2023-05-04T11:54:56.122Z,28.82
2023-05-04T11:56:58.694Z,28.69
2023-05-04T11:59:08.117Z,28.53
2023-05-04T12:01:09.799Z,28.31
2023-05-04T12:03:29.946Z,28.63
2023-05-04T12:05:37.636Z,28.75
2023-05-04T12:07:39.240Z,29.16
2023-05-04T12:09:48.385Z,28.74
2023-05-04T12:11:56.412Z,28.92
2023-05-04T12:14:17.186Z,28.80
2023-05-04T12:16:19.834Z,29.40
2023-05-04T12:18:23.055Z,29.49
2023-05-04T12:20:29.809Z,28.99
2023-05-04T12:22:33.108Z,29.73
2023-05-04T12:24:35.504Z,29.48
2023-05-04T12:26:37.906Z,29.58
2023-05-04T12:28:41.913Z,29.35
2023-05-04T12:30:43.400Z,29.98
2023-05-04T12:32:45.326Z,29.46
2023-05-04T12:34:47.402Z,29.77
2023-05-04T12:36:51.019Z,30.05
2023-05-04T12:38:52.866Z,30.00
2023-05-04T12:40:55.871Z,29.88
2023-05-04T12:42:57.476Z,29.30
2023-05-04T12:44:59.575Z,29.43
2023-05-04T12:47:01.556Z,29.36
2023-05-04T12:49:03.155Z,29.33
2023-05-04T12:51:05.178Z,28.96
2023-05-04T12:53:07.381Z,29.00
2023-05-04T12:55:09.168Z,29.05
2023-05-04T12:57:14.727Z,28.79
2023-05-04T12:59:16.260Z,28.68
2023-05-04T13:01:18.116Z,28.93
2023-05-04T13:03:19.889Z,28.61
2023-05-04T13:05:23.362Z,28.46
2023-05-04T13:07:25.109Z,28.61
2023-05-04T13:09:27.526Z,28.61
2023-05-04T13:11:29.128Z,28.42
2023-05-04T13:13:30.832Z,28.41
2023-05-04T13:15:33.286Z,27.96
2023-05-04T13:17:35.147Z,28.52
2023-05-04T13:19:36.774Z,27.97
2023-05-04T13:21:38.659Z,28.24
2023-05-04T13:23:40.223Z,28.62
2023-05-04T13:25:42.187Z,28.49
2023-05-04T13:27:44.083Z,28.46
2023-05-04T13:29:45.861Z,28.32
2023-05-04T13:31:47.614Z,28.67
2023-05-04T13:33:50.578Z,28.41
2023-05-04T13:35:52.143Z,29.06
2023-05-04T13:37:53.808Z,29.14
2023-05-04T13:39:56.290Z,29.25
2023-05-04T13:41:57.961Z,28.98
2023-05-04T13:43:59.575Z,29.42
2023-05-04T13:46:04.824Z,29.74
2023-05-04T13:48:06.802Z,29.59
2023-05-04T13:50:09.103Z,29.95
2023-05-04T13:52:10.882Z,29.46
2023-05-04T13:54:12.914Z,29.88
2023-05-04T13:56:14.664Z,29.79
2023-05-04T13:58:16.369Z,30.26
2023-05-04T14:00:18.330Z,29.90
2023-05-04T14:02:20.382Z,29.85
2023-05-04T14:04:22.798Z,29.66
2023-05-04T14:06:26.014Z,30.07
2023-05-04T14:08:27.592Z,30.21
2023-05-04T14:10:29.231Z,30.01
2023-05-04T14:12:31.023Z,30.13
2023-05-04T14:14:32.575Z,30.09
2023-05-04T14:16:36.804Z,30.61
2023-05-04T14:18:39.287Z,30.38
2023-05-04T14:20:41.019Z,30.59
2023-05-04T14:22:42.912Z,30.66
2023-05-04T14:24:44.556Z,30.31
2023-05-04T14:26:46.264Z,30.85
2023-05-04T14:28:48.660Z,30.74
2023-05-04T14:30:50.917Z,30.20
2023-05-04T14:32:54.089Z,30.91
2023-05-04T14:35:08.503Z,30.76
2023-05-04T14:37:10.547Z,30.32
2023-05-04T14:39:12.510Z,30.71
2023-05-04T14:41:15.336Z,30.66
2023-05-04T14:43:16.905Z,30.69
2023-05-04T14:45:18.630Z,30.67
2023-05-04T14:47:20.221Z,30.76
2023-05-04T14:49:35.773Z,30.85
2023-05-04T14:51:39.217Z,30.73
2023-05-04T14:53:41.290Z,30.41
2023-05-04T14:55:43.467Z,30.67
2023-05-04T14:57:45.361Z,30.63
2023-05-04T14:59:46.987Z,30.75
2023-05-04T15:01:48.854Z,30.76
2023-05-04T15:03:50.806Z,31.63
2023-05-04T15:05:52.787Z,31.09
2023-05-04T15:07:54.339Z,31.28
2023-05-04T15:09:55.921Z,31.67
2023-05-04T15:11:57.954Z,31.33
2023-05-04T15:13:59.610Z,31.69
2023-05-04T15:16:01.418Z,31.89
2023-05-04T15:18:03.537Z,31.73
2023-05-04T15:20:06.516Z,32.28
2023-05-04T15:22:08.481Z,32.20
2023-05-04T15:24:10.387Z,32.21
2023-05-04T15:26:12.880Z,31.63
2023-05-04T15:28:14.462Z,31.77
2023-05-04T15:30:16.507Z,32.40
2023-05-04T15:32:18.196Z,31.81
2023-05-04T15:34:19.928Z,31.74
2023-05-04T15:36:21.595Z,31.79
2023-05-04T15:38:23.395Z,31.41
2023-05-04T15:40:25.050Z,30.91
2023-05-04T15:42:26.740Z,31.18
2023-05-04T15:44:28.434Z,31.16
2023-05-04T15:46:31.233Z,31.20
2023-05-04T15:48:32.908Z,31.20
2023-05-04T15:50:34.427Z,31.38
2023-05-04T15:52:36.139Z,31.43
2023-05-04T15:54:37.736Z,31.64
2023-05-04T15:56:39.448Z,31.15
2023-05-04T15:58:41.338Z,31.68
2023-05-04T16:00:42.902Z,31.80
2023-05-04T16:02:44.727Z,31.45
2023-05-04T16:04:46.326Z,31.52
2023-05-04T16:06:47.872Z,31.79
2023-05-04T16:08:49.577Z,31.57
2023-05-04T16:10:53.307Z,31.47
2023-05-04T16:12:55.238Z,32.10
2023-05-04T16:14:56.939Z,31.98
2023-05-04T16:17:01.586Z,32.67
2023-05-04T16:19:03.452Z,32.14
2023-05-04T16:21:05.114Z,32.18
2023-05-04T16:23:06.707Z,32.63
2023-05-04T16:25:10.850Z,31.87
2023-05-04T16:27:13.018Z,32.14
2023-05-04T16:29:15.876Z,32.46
2023-05-04T16:31:17.723Z,32.11
2023-05-04T16:33:19.792Z,31.78
2023-05-04T16:35:21.589Z,32.16
2023-05-04T16:37:23.275Z,31.52
2023-05-04T16:39:34.072Z,32.04
2023-05-04T16:41:36.491Z,31.75
2023-05-04T16:43:38.112Z,31.78
2023-05-04T16:45:39.677Z,31.49
2023-05-04T16:47:42.703Z,31.54
2023-05-04T16:49:44.465Z,31.67
2023-05-04T16:51:46.084Z,31.45
2023-05-04T16:53:48.098Z,31.59
2023-05-04T16:55:51.012Z,31.16
2023-05-04T16:57:59.356Z,31.46
2023-05-04T17:00:01.267Z,31.42
2023-05-04T17:02:03.072Z,31.50
2023-05-04T17:04:04.846Z,31.19
2023-05-04T17:06:06.731Z,31.01
2023-05-04T17:08:08.401Z,31.62
2023-05-04T17:10:10.617Z,31.09
2023-05-04T17:12:12.818Z,31.12
2023-05-04T17:14:14.556Z,30.83
2023-05-04T17:16:16.161Z,30.89
2023-05-04T17:18:17.870Z,31.03
2023-05-04T17:20:19.738Z,30.86
2023-05-04T17:22:21.871Z,30.72
2023-05-04T17:24:23.537Z,30.70
2023-05-04T17:26:25.123Z,31.14
2023-05-04T17:28:26.675Z,31.15
2023-05-04T17:30:28.223Z,31.07
2023-05-04T17:32:30.909Z,31.21
2023-05-04T17:34:32.647Z,30.94
2023-05-04T17:36:34.223Z,30.71
2023-05-04T17:38:35.820Z,30.69
2023-05-04T17:40:37.641Z,30.81
2023-05-04T17:42:39.268Z,30.90
2023-05-04T17:44:40.990Z,31.06
2023-05-04T17:46:42.911Z,31.15
2023-05-04T17:48:44.798Z,30.98
2023-05-04T17:50:46.481Z,30.97
2023-05-04T17:52:56.468Z,31.12
2023-05-04T17:54:58.199Z,30.81
2023-05-04T17:57:00.038Z,31.17
2023-05-04T17:59:01.594Z,31.32
2023-05-04T18:01:03.289Z,30.69
2023-05-04T18:03:05.375Z,31.14
2023-05-04T18:05:07.714Z,30.72
2023-05-04T18:07:09.613Z,30.68
2023-05-04T18:09:11.733Z,30.76
2023-05-04T18:11:13.409Z,30.72
2023-05-04T18:13:15.319Z,30.75
2023-05-04T18:15:18.335Z,30.64
2023-05-04T18:17:20.104Z,30.43
2023-05-04T18:19:24.793Z,30.49
2023-05-04T18:21:27.737Z,30.44
2023-05-04T18:23:30.081Z,30.46
2023-05-04T18:25:31.856Z,30.18
2023-05-04T18:27:34.587Z,30.22
2023-05-04T18:29:36.355Z,29.79
2023-05-04T18:31:37.999Z,30.10
2023-05-04T18:33:39.859Z,29.93
2023-05-04T18:35:41.832Z,30.06
2023-05-04T18:37:43.366Z,29.93
2023-05-04T18:39:44.939Z,29.65
2023-05-04T18:41:46.639Z,29.62
2023-05-04T18:43:48.697Z,29.99
2023-05-04T18:45:50.401Z,29.49
2023-05-04T18:47:52.235Z,29.42
2023-05-04T18:49:56.095Z,29.66
2023-05-04T18:51:57.682Z,29.51
2023-05-04T18:53:59.375Z,29.41
2023-05-04T18:56:04.377Z,29.37
2023-05-04T18:58:05.997Z,29.46
2023-05-04T19:00:09.238Z,29.64
2023-05-04T19:02:11.154Z,29.82
2023-05-04T19:04:12.723Z,29.31
2023-05-04T19:06:14.305Z,29.68
2023-05-04T19:08:16.127Z,29.13
2023-05-04T19:10:17.826Z,29.78
2023-05-04T19:12:20.077Z,29.63
2023-05-04T19:14:21.914Z,29.11
2023-05-04T19:16:23.530Z,29.08
2023-05-04T19:18:25.248Z,29.53
2023-05-04T19:20:27.643Z,29.62
2023-05-04T19:22:29.906Z,29.31
2023-05-04T19:24:31.567Z,28.94
2023-05-04T19:26:33.048Z,29.00
2023-05-04T19:28:34.772Z,28.95
2023-05-04T19:30:37.089Z,29.07
2023-05-04T19:32:38.751Z,28.89
2023-05-04T19:34:42.945Z,28.92
2023-05-04T19:36:44.545Z,29.64
2023-05-04T19:38:46.254Z,29.35
2023-05-04T19:40:47.838Z,28.94
2023-05-04T19:42:49.509Z,29.40
2023-05-04T19:44:51.406Z,29.35
2023-05-04T19:46:53.074Z,29.29
2023-05-04T19:48:54.657Z,29.31
2023-05-04T19:50:56.182Z,29.34
2023-05-04T19:52:57.745Z,28.87
2023-05-04T19:54:59.572Z,28.82
2023-05-04T19:57:01.156Z,29.28
2023-05-04T19:59:02.754Z,29.19
2023-05-04T20:01:04.371Z,29.24
2023-05-04T20:03:06.684Z,28.98
2023-05-04T20:05:08.313Z,29.22
2023-05-04T20:07:09.888Z,28.78
2023-05-04T20:09:11.452Z,29.10
2023-05-04T20:11:13.181Z,28.60
2023-05-04T20:13:14.941Z,28.67
2023-05-04T20:15:16.602Z,28.64
2023-05-04T20:17:18.245Z,29.10
2023-05-04T20:19:19.873Z,28.84
2023-05-04T20:21:21.581Z,28.51
2023-05-04T20:23:23.193Z,28.96
2023-05-04T20:25:24.893Z,28.66
2023-05-04T20:27:26.435Z,28.98
2023-05-04T20:29:28.098Z,28.54
2023-05-04T20:31:30.784Z,28.62
2023-05-04T20:33:32.397Z,29.04
2023-05-04T20:35:35.289Z,29.00
2023-05-04T20:37:37.162Z,28.96
2023-05-04T20:39:38.811Z,28.93
2023-05-04T20:41:40.959Z,28.62
2023-05-04T20:43:42.707Z,29.03
2023-05-04T20:45:44.309Z,28.51
2023-05-04T20:47:45.913Z,28.76
2023-05-04T20:49:47.550Z,28.43
2023-05-04T20:51:49.189Z,28.60
2023-05-04T20:53:50.862Z,28.86
2023-05-04T20:55:52.971Z,28.51
2023-05-04T20:57:54.532Z,28.90
2023-05-04T20:59:56.429Z,28.89
2023-05-04T21:01:58.197Z,28.51
2023-05-04T21:04:00.065Z,28.55
2023-05-04T21:06:02.316Z,28.74
2023-05-04T21:08:04.031Z,28.79
2023-05-04T21:10:06.481Z,28.57
2023-05-04T21:12:08.266Z,28.85
2023-05-04T21:14:10.009Z,28.55
2023-05-04T21:16:11.726Z,28.92
2023-05-04T21:18:13.422Z,28.47
2023-05-04T21:20:15.500Z,28.35
2023-05-04T21:22:17.719Z,28.87
2023-05-04T21:24:19.427Z,28.45
2023-05-04T21:26:20.906Z,28.87
2023-05-04T21:28:22.512Z,28.36
2023-05-04T21:30:24.400Z,28.66
2023-05-04T21:32:27.399Z,28.56
2023-05-04T21:34:29.860Z,28.66
2023-05-04T21:36:31.785Z,28.80
2023-05-04T21:38:33.333Z,28.59
2023-05-04T21:40:35.047Z,28.25
2023-05-04T21:42:36.653Z,28.45
2023-05-04T21:44:38.199Z,28.81
2023-05-04T21:46:39.780Z,28.62
2023-05-04T21:48:41.628Z,28.28
2023-05-04T21:50:43.332Z,28.38
2023-05-04T21:52:44.849Z,28.61
2023-05-04T21:54:46.848Z,28.58
2023-05-04T21:56:48.461Z,28.70
2023-05-04T21:58:50.393Z,28.82
2023-05-04T22:00:52.755Z,28.24
2023-05-04T22:02:55.045Z,28.77
2023-05-04T22:04:56.713Z,28.59
2023-05-04T22:06:58.529Z,28.62
2023-05-04T22:09:00.168Z,28.76
2023-05-04T22:11:02.178Z,28.25
2023-05-04T22:13:03.794Z,28.67
2023-05-04T22:15:06.569Z,28.54
2023-05-04T22:17:08.284Z,28.74
2023-05-04T22:19:10.236Z,28.10
2023-05-04T22:21:11.777Z,28.64
2023-05-04T22:23:14.118Z,28.67
2023-05-04T22:25:16.014Z,28.62
2023-05-04T22:27:18.391Z,28.29
2023-05-04T22:29:19.888Z,28.14
2023-05-04T22:31:21.517Z,28.56
2023-05-04T22:33:23.090Z,28.62
2023-05-04T22:35:24.697Z,28.17
2023-05-04T22:37:26.936Z,28.60
2023-05-04T22:39:28.732Z,28.28
2023-05-04T22:41:30.391Z,28.58
2023-05-04T22:43:31.975Z,28.61
2023-05-04T22:45:35.868Z,28.67
2023-05-04T22:47:37.720Z,28.13
2023-05-04T22:49:39.307Z,28.18
2023-05-04T22:51:41.109Z,28.22
2023-05-04T22:53:42.809Z,28.45
2023-05-04T22:55:44.500Z,28.51
2023-05-04T22:57:46.198Z,28.30
2023-05-04T22:59:47.754Z,28.02
2023-05-04T23:01:50.157Z,28.34
2023-05-04T23:03:51.946Z,28.04
2023-05-04T23:05:53.979Z,28.43
2023-05-04T23:07:55.515Z,28.22
2023-05-04T23:09:57.434Z,27.96
2023-05-04T23:11:59.022Z,28.31
2023-05-04T23:14:00.999Z,28.52
2023-05-04T23:16:03.637Z,27.96
2023-05-04T23:18:05.706Z,28.57
2023-05-04T23:20:09.411Z,28.63
2023-05-04T23:22:11.145Z,28.40
2023-05-04T23:24:12.781Z,28.46
2023-05-04T23:26:14.417Z,28.57
2023-05-04T23:28:16.103Z,28.57
2023-05-04T23:30:17.965Z,28.22
2023-05-04T23:32:19.665Z,28.07
2023-05-04T23:34:21.398Z,28.40
2023-05-04T23:36:22.897Z,27.95
2023-05-04T23:38:24.483Z,27.91
2023-05-04T23:40:26.162Z,28.54
2023-05-04T23:42:27.740Z,28.02
2023-05-04T23:44:29.314Z,28.12
2023-05-04T23:46:30.918Z,28.34
2023-05-04T23:48:32.635Z,28.13
2023-05-04T23:50:34.315Z,28.00
2023-05-04T23:52:36.624Z,28.39
2023-05-04T23:54:38.190Z,28.41
2023-05-04T23:56:39.891Z,27.98
2023-05-04T23:58:41.735Z,28.37
